sensor_id;sensor_type;location;lat;lon;timestamp;temperature;humidity
80290;SHT30;69592;44.804;-0.550;2023-08-31T00:01:38;16.48;83.37
80290;SHT30;69592;44.804;-0.550;2023-08-31T00:04:04;16.42;83.28
80290;SHT30;69592;44.804;-0.550;2023-08-31T00:06:30;16.38;83.50
80290;SHT30;69592;44.804;-0.550;2023-08-31T00:08:55;16.35;83.41
80290;SHT30;69592;44.804;-0.550;2023-08-31T00:11:21;16.32;84.06
80290;SHT30;69592;44.804;-0.550;2023-08-31T00:13:46;16.32;83.36
80290;SHT30;69592;44.804;-0.550;2023-08-31T00:16:11;16.28;83.89
80290;SHT30;69592;44.804;-0.550;2023-08-31T00:18:37;16.36;83.94
80290;SHT30;69592;44.804;-0.550;2023-08-31T00:21:04;16.26;83.66
80290;SHT30;69592;44.804;-0.550;2023-08-31T00:23:29;16.25;83.85
80290;SHT30;69592;44.804;-0.550;2023-08-31T00:25:54;16.26;84.00
80290;SHT30;69592;44.804;-0.550;2023-08-31T00:28:22;16.19;84.09
80290;SHT30;69592;44.804;-0.550;2023-08-31T00:30:48;16.17;84.18
80290;SHT30;69592;44.804;-0.550;2023-08-31T00:33:14;16.09;84.97
80290;SHT30;69592;44.804;-0.550;2023-08-31T00:35:40;16.05;84.39
80290;SHT30;69592;44.804;-0.550;2023-08-31T00:38:11;16.07;84.67
80290;SHT30;69592;44.804;-0.550;2023-08-31T00:40:40;16.08;84.62
80290;SHT30;69592;44.804;-0.550;2023-08-31T00:43:13;16.08;84.42
80290;SHT30;69592;44.804;-0.550;2023-08-31T00:45:44;16.04;84.37
80290;SHT30;69592;44.804;-0.550;2023-08-31T00:48:11;16.07;84.52
80290;SHT30;69592;44.804;-0.550;2023-08-31T00:50:37;16.05;84.40
80290;SHT30;69592;44.804;-0.550;2023-08-31T00:53:03;15.95;84.58
80290;SHT30;69592;44.804;-0.550;2023-08-31T00:55:29;15.95;84.59
80290;SHT30;69592;44.804;-0.550;2023-08-31T00:57:55;15.90;84.71
80290;SHT30;69592;44.804;-0.550;2023-08-31T01:00:23;15.90;84.89
80290;SHT30;69592;44.804;-0.550;2023-08-31T01:03:04;15.84;85.13
80290;SHT30;69592;44.804;-0.550;2023-08-31T01:05:50;15.84;85.30
80290;SHT30;69592;44.804;-0.550;2023-08-31T01:11:09;15.80;85.54
80290;SHT30;69592;44.804;-0.550;2023-08-31T01:13:41;15.77;85.61
80290;SHT30;69592;44.804;-0.550;2023-08-31T01:16:08;15.71;85.72
80290;SHT30;69592;44.804;-0.550;2023-08-31T01:18:37;15.75;85.57
80290;SHT30;69592;44.804;-0.550;2023-08-31T01:21:11;15.60;86.24
80290;SHT30;69592;44.804;-0.550;2023-08-31T01:23:51;15.63;86.08
80290;SHT30;69592;44.804;-0.550;2023-08-31T01:26:19;15.58;86.14
80290;SHT30;69592;44.804;-0.550;2023-08-31T01:28:46;15.57;86.42
80290;SHT30;69592;44.804;-0.550;2023-08-31T01:31:12;15.56;86.38
80290;SHT30;69592;44.804;-0.550;2023-08-31T01:33:37;15.63;86.31
80290;SHT30;69592;44.804;-0.550;2023-08-31T01:36:06;15.64;86.15
80290;SHT30;69592;44.804;-0.550;2023-08-31T01:38:37;15.60;86.21
80290;SHT30;69592;44.804;-0.550;2023-08-31T01:41:10;15.54;86.33
80290;SHT30;69592;44.804;-0.550;2023-08-31T01:43:40;15.57;86.50
80290;SHT30;69592;44.804;-0.550;2023-08-31T01:46:07;15.53;86.55
80290;SHT30;69592;44.804;-0.550;2023-08-31T01:48:38;15.53;86.56
80290;SHT30;69592;44.804;-0.550;2023-08-31T01:51:04;15.53;86.50
80290;SHT30;69592;44.804;-0.550;2023-08-31T01:53:30;15.51;86.53
80290;SHT30;69592;44.804;-0.550;2023-08-31T01:55:56;15.53;86.92
80290;SHT30;69592;44.804;-0.550;2023-08-31T01:58:21;15.53;86.61
80290;SHT30;69592;44.804;-0.550;2023-08-31T02:00:48;15.51;86.75
80290;SHT30;69592;44.804;-0.550;2023-08-31T02:03:13;15.49;86.62
80290;SHT30;69592;44.804;-0.550;2023-08-31T02:05:38;15.43;86.86
80290;SHT30;69592;44.804;-0.550;2023-08-31T02:08:07;15.44;86.53
80290;SHT30;69592;44.804;-0.550;2023-08-31T02:10:32;15.43;86.67
80290;SHT30;69592;44.804;-0.550;2023-08-31T02:12:57;15.46;86.50
80290;SHT30;69592;44.804;-0.550;2023-08-31T02:15:23;15.46;86.70
80290;SHT30;69592;44.804;-0.550;2023-08-31T02:17:48;15.49;86.46
80290;SHT30;69592;44.804;-0.550;2023-08-31T02:20:14;15.40;86.58
80290;SHT30;69592;44.804;-0.550;2023-08-31T02:22:39;15.40;86.86
80290;SHT30;69592;44.804;-0.550;2023-08-31T02:25:08;15.37;86.83
80290;SHT30;69592;44.804;-0.550;2023-08-31T02:27:34;15.37;87.03
80290;SHT30;69592;44.804;-0.550;2023-08-31T02:29:59;15.43;86.86
80290;SHT30;69592;44.804;-0.550;2023-08-31T02:32:24;15.39;87.09
80290;SHT30;69592;44.804;-0.550;2023-08-31T02:34:50;15.32;87.37
80290;SHT30;69592;44.804;-0.550;2023-08-31T02:37:16;15.39;87.31
80290;SHT30;69592;44.804;-0.550;2023-08-31T02:39:41;15.49;87.08
80290;SHT30;69592;44.804;-0.550;2023-08-31T02:42:06;15.56;86.41
80290;SHT30;69592;44.804;-0.550;2023-08-31T02:44:33;15.50;86.59
80290;SHT30;69592;44.804;-0.550;2023-08-31T02:46:58;15.50;86.89
80290;SHT30;69592;44.804;-0.550;2023-08-31T02:49:24;15.46;86.61
80290;SHT30;69592;44.804;-0.550;2023-08-31T02:51:49;15.42;86.93
80290;SHT30;69592;44.804;-0.550;2023-08-31T02:54:15;15.44;87.06
80290;SHT30;69592;44.804;-0.550;2023-08-31T02:56:40;15.49;87.24
80290;SHT30;69592;44.804;-0.550;2023-08-31T02:59:09;15.49;86.78
80290;SHT30;69592;44.804;-0.550;2023-08-31T03:01:34;15.53;86.73
80290;SHT30;69592;44.804;-0.550;2023-08-31T03:04:00;15.50;86.97
80290;SHT30;69592;44.804;-0.550;2023-08-31T03:06:26;15.49;86.97
80290;SHT30;69592;44.804;-0.550;2023-08-31T03:08:51;15.42;87.17
80290;SHT30;69592;44.804;-0.550;2023-08-31T03:11:16;15.30;87.59
80290;SHT30;69592;44.804;-0.550;2023-08-31T03:13:42;15.36;87.59
80290;SHT30;69592;44.804;-0.550;2023-08-31T03:16:07;15.36;87.51
80290;SHT30;69592;44.804;-0.550;2023-08-31T03:18:33;15.39;87.72
80290;SHT30;69592;44.804;-0.550;2023-08-31T03:20:58;15.32;87.46
80290;SHT30;69592;44.804;-0.550;2023-08-31T03:23:24;15.32;87.70
80290;SHT30;69592;44.804;-0.550;2023-08-31T03:25:50;15.34;87.64
80290;SHT30;69592;44.804;-0.550;2023-08-31T03:28:15;15.39;87.84
80290;SHT30;69592;44.804;-0.550;2023-08-31T03:30:40;15.34;87.52
80290;SHT30;69592;44.804;-0.550;2023-08-31T03:33:06;15.26;87.66
80290;SHT30;69592;44.804;-0.550;2023-08-31T03:35:32;15.27;87.60
80290;SHT30;69592;44.804;-0.550;2023-08-31T03:37:57;15.26;87.66
80290;SHT30;69592;44.804;-0.550;2023-08-31T03:40:23;15.29;88.03
80290;SHT30;69592;44.804;-0.550;2023-08-31T03:42:49;15.34;87.47
80290;SHT30;69592;44.804;-0.550;2023-08-31T03:45:15;15.30;87.66
80290;SHT30;69592;44.804;-0.550;2023-08-31T03:47:40;15.33;87.51
80290;SHT30;69592;44.804;-0.550;2023-08-31T03:50:09;15.40;87.41
80290;SHT30;69592;44.804;-0.550;2023-08-31T03:52:34;15.44;87.56
80290;SHT30;69592;44.804;-0.550;2023-08-31T03:55:00;15.51;87.41
80290;SHT30;69592;44.804;-0.550;2023-08-31T03:57:25;15.58;87.18
80290;SHT30;69592;44.804;-0.550;2023-08-31T03:59:51;15.61;87.16
80290;SHT30;69592;44.804;-0.550;2023-08-31T04:02:17;15.61;87.35
80290;SHT30;69592;44.804;-0.550;2023-08-31T04:04:42;15.64;87.06
80290;SHT30;69592;44.804;-0.550;2023-08-31T04:07:07;15.74;87.12
80290;SHT30;69592;44.804;-0.550;2023-08-31T04:09:33;15.75;86.96
80290;SHT30;69592;44.804;-0.550;2023-08-31T04:11:58;15.71;87.22
80290;SHT30;69592;44.804;-0.550;2023-08-31T04:14:26;15.68;87.46
80290;SHT30;69592;44.804;-0.550;2023-08-31T04:16:51;15.70;87.61
80290;SHT30;69592;44.804;-0.550;2023-08-31T04:19:17;15.75;87.44
80290;SHT30;69592;44.804;-0.550;2023-08-31T04:21:43;15.73;87.58
80290;SHT30;69592;44.804;-0.550;2023-08-31T04:24:08;15.77;87.54
80290;SHT30;69592;44.804;-0.550;2023-08-31T04:26:34;15.74;87.66
80290;SHT30;69592;44.804;-0.550;2023-08-31T04:29:01;15.83;87.49
80290;SHT30;69592;44.804;-0.550;2023-08-31T04:31:26;15.75;87.87
80290;SHT30;69592;44.804;-0.550;2023-08-31T04:33:52;15.70;87.78
80290;SHT30;69592;44.804;-0.550;2023-08-31T04:36:20;15.67;87.89
80290;SHT30;69592;44.804;-0.550;2023-08-31T04:38:45;15.65;87.78
80290;SHT30;69592;44.804;-0.550;2023-08-31T04:41:11;15.68;88.06
80290;SHT30;69592;44.804;-0.550;2023-08-31T04:43:36;15.70;87.83
80290;SHT30;69592;44.804;-0.550;2023-08-31T04:46:01;15.71;87.89
80290;SHT30;69592;44.804;-0.550;2023-08-31T04:48:29;15.65;88.03
80290;SHT30;69592;44.804;-0.550;2023-08-31T04:50:58;15.60;88.29
80290;SHT30;69592;44.804;-0.550;2023-08-31T04:53:24;15.61;88.34
80290;SHT30;69592;44.804;-0.550;2023-08-31T04:55:49;15.61;88.32
80290;SHT30;69592;44.804;-0.550;2023-08-31T04:58:14;15.54;88.50
80290;SHT30;69592;44.804;-0.550;2023-08-31T05:00:40;15.47;89.05
80290;SHT30;69592;44.804;-0.550;2023-08-31T05:03:05;15.53;89.05
80290;SHT30;69592;44.804;-0.550;2023-08-31T05:05:31;15.61;88.56
80290;SHT30;69592;44.804;-0.550;2023-08-31T05:07:56;15.63;88.66
80290;SHT30;69592;44.804;-0.550;2023-08-31T05:10:22;15.57;88.78
80290;SHT30;69592;44.804;-0.550;2023-08-31T05:12:47;15.60;88.65
80290;SHT30;69592;44.804;-0.550;2023-08-31T05:15:13;15.58;88.78
80290;SHT30;69592;44.804;-0.550;2023-08-31T05:17:38;15.57;88.94
80290;SHT30;69592;44.804;-0.550;2023-08-31T05:20:04;15.58;88.61
80290;SHT30;69592;44.804;-0.550;2023-08-31T05:22:30;15.51;89.02
80290;SHT30;69592;44.804;-0.550;2023-08-31T05:24:55;15.49;89.10
80290;SHT30;69592;44.804;-0.550;2023-08-31T05:27:21;15.46;88.92
80290;SHT30;69592;44.804;-0.550;2023-08-31T05:29:46;15.37;89.22
80290;SHT30;69592;44.804;-0.550;2023-08-31T05:32:12;15.36;89.33
80290;SHT30;69592;44.804;-0.550;2023-08-31T05:34:37;15.40;89.50
80290;SHT30;69592;44.804;-0.550;2023-08-31T05:37:05;15.37;89.15
80290;SHT30;69592;44.804;-0.550;2023-08-31T05:39:30;15.39;89.25
80290;SHT30;69592;44.804;-0.550;2023-08-31T05:41:56;15.32;89.46
80290;SHT30;69592;44.804;-0.550;2023-08-31T05:44:22;15.30;89.51
80290;SHT30;69592;44.804;-0.550;2023-08-31T05:46:47;15.24;89.68
80290;SHT30;69592;44.804;-0.550;2023-08-31T05:49:13;15.23;89.61
80290;SHT30;69592;44.804;-0.550;2023-08-31T05:51:38;15.26;89.55
80290;SHT30;69592;44.804;-0.550;2023-08-31T05:54:04;15.34;89.47
80290;SHT30;69592;44.804;-0.550;2023-08-31T05:56:29;15.39;89.56
80290;SHT30;69592;44.804;-0.550;2023-08-31T05:58:54;15.47;89.56
80290;SHT30;69592;44.804;-0.550;2023-08-31T06:01:21;15.49;89.30
80290;SHT30;69592;44.804;-0.550;2023-08-31T06:03:47;15.51;89.35
80290;SHT30;69592;44.804;-0.550;2023-08-31T06:06:13;15.60;89.19
80290;SHT30;69592;44.804;-0.550;2023-08-31T06:08:39;15.75;89.19
80290;SHT30;69592;44.804;-0.550;2023-08-31T06:11:04;15.85;88.75
80290;SHT30;69592;44.804;-0.550;2023-08-31T06:13:29;15.91;88.68
80290;SHT30;69592;44.804;-0.550;2023-08-31T06:15:55;16.02;88.44
80290;SHT30;69592;44.804;-0.550;2023-08-31T06:18:25;16.11;88.29
80290;SHT30;69592;44.804;-0.550;2023-08-31T06:20:50;16.09;88.28
80290;SHT30;69592;44.804;-0.550;2023-08-31T06:23:16;16.04;88.24
80290;SHT30;69592;44.804;-0.550;2023-08-31T06:25:41;15.95;88.42
80290;SHT30;69592;44.804;-0.550;2023-08-31T06:28:07;15.97;88.60
80290;SHT30;69592;44.804;-0.550;2023-08-31T06:30:34;16.02;88.50
80290;SHT30;69592;44.804;-0.550;2023-08-31T06:33:00;16.01;88.58
80290;SHT30;69592;44.804;-0.550;2023-08-31T06:35:25;16.04;88.39
80290;SHT30;69592;44.804;-0.550;2023-08-31T06:37:51;16.15;88.17
80290;SHT30;69592;44.804;-0.550;2023-08-31T06:40:16;16.41;87.82
80290;SHT30;69592;44.804;-0.550;2023-08-31T06:42:42;16.69;86.98
80290;SHT30;69592;44.804;-0.550;2023-08-31T06:45:08;16.86;86.97
80290;SHT30;69592;44.804;-0.550;2023-08-31T06:47:34;17.02;86.35
80290;SHT30;69592;44.804;-0.550;2023-08-31T06:50:00;17.20;85.91
80290;SHT30;69592;44.804;-0.550;2023-08-31T06:52:27;17.35;85.47
80290;SHT30;69592;44.804;-0.550;2023-08-31T06:54:53;17.40;85.27
80290;SHT30;69592;44.804;-0.550;2023-08-31T06:57:26;17.32;85.17
80290;SHT30;69592;44.804;-0.550;2023-08-31T06:59:52;17.38;85.13
80290;SHT30;69592;44.804;-0.550;2023-08-31T07:02:18;17.45;85.10
80290;SHT30;69592;44.804;-0.550;2023-08-31T07:04:49;17.51;84.83
80290;SHT30;69592;44.804;-0.550;2023-08-31T07:07:17;17.67;84.78
80290;SHT30;69592;44.804;-0.550;2023-08-31T07:09:43;17.79;84.46
80290;SHT30;69592;44.804;-0.550;2023-08-31T07:12:09;17.99;84.12
80290;SHT30;69592;44.804;-0.550;2023-08-31T07:14:35;18.13;83.41
80290;SHT30;69592;44.804;-0.550;2023-08-31T07:17:00;18.33;83.30
80290;SHT30;69592;44.804;-0.550;2023-08-31T07:19:26;18.45;83.17
80290;SHT30;69592;44.804;-0.550;2023-08-31T07:21:52;18.50;83.22
80290;SHT30;69592;44.804;-0.550;2023-08-31T07:24:19;18.40;82.77
80290;SHT30;69592;44.804;-0.550;2023-08-31T07:26:45;18.22;82.95
80290;SHT30;69592;44.804;-0.550;2023-08-31T07:29:10;18.30;83.31
80290;SHT30;69592;44.804;-0.550;2023-08-31T07:31:36;18.42;83.20
80290;SHT30;69592;44.804;-0.550;2023-08-31T07:34:01;18.35;83.33
80290;SHT30;69592;44.804;-0.550;2023-08-31T07:36:26;18.49;83.16
80290;SHT30;69592;44.804;-0.550;2023-08-31T07:38:52;18.57;82.92
80290;SHT30;69592;44.804;-0.550;2023-08-31T07:41:17;18.57;82.60
80290;SHT30;69592;44.804;-0.550;2023-08-31T07:43:43;18.64;82.64
80290;SHT30;69592;44.804;-0.550;2023-08-31T07:46:08;18.74;82.91
80290;SHT30;69592;44.804;-0.550;2023-08-31T07:48:33;18.93;82.80
80290;SHT30;69592;44.804;-0.550;2023-08-31T07:50:59;19.12;82.47
80290;SHT30;69592;44.804;-0.550;2023-08-31T07:53:24;19.22;81.64
80290;SHT30;69592;44.804;-0.550;2023-08-31T07:55:54;19.36;81.12
80290;SHT30;69592;44.804;-0.550;2023-08-31T07:58:20;19.52;81.20
80290;SHT30;69592;44.804;-0.550;2023-08-31T08:00:46;19.55;81.26
80290;SHT30;69592;44.804;-0.550;2023-08-31T08:03:11;19.65;81.22
80290;SHT30;69592;44.804;-0.550;2023-08-31T08:05:39;19.82;80.92
80290;SHT30;69592;44.804;-0.550;2023-08-31T08:08:06;19.92;80.72
80290;SHT30;69592;44.804;-0.550;2023-08-31T08:10:32;19.92;80.09
80290;SHT30;69592;44.804;-0.550;2023-08-31T08:12:57;20.03;80.31
80290;SHT30;69592;44.804;-0.550;2023-08-31T08:15:24;20.22;79.98
80290;SHT30;69592;44.804;-0.550;2023-08-31T08:17:49;20.36;80.43
80290;SHT30;69592;44.804;-0.550;2023-08-31T08:20:18;20.50;79.74
80290;SHT30;69592;44.804;-0.550;2023-08-31T08:22:43;20.67;79.64
80290;SHT30;69592;44.804;-0.550;2023-08-31T08:25:10;20.73;78.95
80290;SHT30;69592;44.804;-0.550;2023-08-31T08:27:36;20.68;79.04
80290;SHT30;69592;44.804;-0.550;2023-08-31T08:30:02;20.80;78.84
80290;SHT30;69592;44.804;-0.550;2023-08-31T08:32:28;20.87;78.53
80290;SHT30;69592;44.804;-0.550;2023-08-31T08:34:53;21.01;78.41
80290;SHT30;69592;44.804;-0.550;2023-08-31T08:37:19;21.21;78.45
80290;SHT30;69592;44.804;-0.550;2023-08-31T08:39:48;21.41;77.94
80290;SHT30;69592;44.804;-0.550;2023-08-31T08:42:19;21.52;77.87
80290;SHT30;69592;44.804;-0.550;2023-08-31T08:44:48;21.63;77.26
80290;SHT30;69592;44.804;-0.550;2023-08-31T08:47:13;21.62;76.64
80290;SHT30;69592;44.804;-0.550;2023-08-31T08:49:42;21.79;76.77
80290;SHT30;69592;44.804;-0.550;2023-08-31T08:52:09;21.90;76.60
80290;SHT30;69592;44.804;-0.550;2023-08-31T08:54:35;21.94;76.63
80290;SHT30;69592;44.804;-0.550;2023-08-31T08:57:01;22.04;76.47
80290;SHT30;69592;44.804;-0.550;2023-08-31T08:59:32;22.11;76.73
80290;SHT30;69592;44.804;-0.550;2023-08-31T09:01:57;22.33;75.57
80290;SHT30;69592;44.804;-0.550;2023-08-31T09:04:24;22.33;75.37
80290;SHT30;69592;44.804;-0.550;2023-08-31T09:06:53;22.34;75.89
80290;SHT30;69592;44.804;-0.550;2023-08-31T09:09:18;22.50;75.43
80290;SHT30;69592;44.804;-0.550;2023-08-31T09:11:47;22.47;75.70
80290;SHT30;69592;44.804;-0.550;2023-08-31T09:14:18;22.28;76.65
80290;SHT30;69592;44.804;-0.550;2023-08-31T09:16:47;22.07;76.86
80290;SHT30;69592;44.804;-0.550;2023-08-31T09:19:21;21.96;77.55
80290;SHT30;69592;44.804;-0.550;2023-08-31T09:21:51;21.93;78.02
80290;SHT30;69592;44.804;-0.550;2023-08-31T09:24:29;21.75;79.39
80290;SHT30;69592;44.804;-0.550;2023-08-31T09:26:56;21.77;79.57
80290;SHT30;69592;44.804;-0.550;2023-08-31T09:29:24;21.97;79.29
80290;SHT30;69592;44.804;-0.550;2023-08-31T09:31:49;21.92;78.93
80290;SHT30;69592;44.804;-0.550;2023-08-31T09:34:16;21.90;78.84
80290;SHT30;69592;44.804;-0.550;2023-08-31T09:36:42;22.18;79.07
80290;SHT30;69592;44.804;-0.550;2023-08-31T09:39:09;22.31;79.96
80290;SHT30;69592;44.804;-0.550;2023-08-31T09:41:52;22.14;81.26
80290;SHT30;69592;44.804;-0.550;2023-08-31T09:44:20;22.10;81.37
80290;SHT30;69592;44.804;-0.550;2023-08-31T09:46:48;22.18;81.47
80290;SHT30;69592;44.804;-0.550;2023-08-31T09:49:15;22.34;81.26
80290;SHT30;69592;44.804;-0.550;2023-08-31T09:51:44;22.40;80.38
80290;SHT30;69592;44.804;-0.550;2023-08-31T09:54:14;22.36;80.73
80290;SHT30;69592;44.804;-0.550;2023-08-31T09:56:43;22.33;81.08
80290;SHT30;69592;44.804;-0.550;2023-08-31T09:59:10;22.22;80.69
80290;SHT30;69592;44.804;-0.550;2023-08-31T10:01:45;22.38;80.98
80290;SHT30;69592;44.804;-0.550;2023-08-31T10:04:11;22.44;80.41
80290;SHT30;69592;44.804;-0.550;2023-08-31T10:06:42;22.50;80.74
80290;SHT30;69592;44.804;-0.550;2023-08-31T10:09:08;22.30;81.53
80290;SHT30;69592;44.804;-0.550;2023-08-31T10:11:40;22.22;81.57
80290;SHT30;69592;44.804;-0.550;2023-08-31T10:14:10;21.97;82.02
80290;SHT30;69592;44.804;-0.550;2023-08-31T10:16:39;22.00;82.03
80290;SHT30;69592;44.804;-0.550;2023-08-31T10:19:05;22.13;82.25
80290;SHT30;69592;44.804;-0.550;2023-08-31T10:21:31;22.04;82.29
80290;SHT30;69592;44.804;-0.550;2023-08-31T10:23:57;22.24;81.55
80290;SHT30;69592;44.804;-0.550;2023-08-31T10:28:49;22.61;81.52
80290;SHT30;69592;44.804;-0.550;2023-08-31T10:31:18;22.79;80.59
80290;SHT30;69592;44.804;-0.550;2023-08-31T10:33:59;22.92;81.35
80290;SHT30;69592;44.804;-0.550;2023-08-31T10:41:36;22.88;83.07
80290;SHT30;69592;44.804;-0.550;2023-08-31T10:44:18;22.79;84.26
80290;SHT30;69592;44.804;-0.550;2023-08-31T10:46:43;22.75;84.93
80290;SHT30;69592;44.804;-0.550;2023-08-31T10:51:45;22.92;84.82
80290;SHT30;69592;44.804;-0.550;2023-08-31T10:54:12;22.68;85.20
80290;SHT30;69592;44.804;-0.550;2023-08-31T10:57:01;22.78;84.51
80290;SHT30;69592;44.804;-0.550;2023-08-31T10:59:54;22.96;84.30
80290;SHT30;69592;44.804;-0.550;2023-08-31T11:02:58;23.18;83.95
80290;SHT30;69592;44.804;-0.550;2023-08-31T11:05:24;23.23;84.05
80290;SHT30;69592;44.804;-0.550;2023-08-31T11:07:50;23.12;83.57
80290;SHT30;69592;44.804;-0.550;2023-08-31T11:10:19;23.20;83.70
80290;SHT30;69592;44.804;-0.550;2023-08-31T11:12:47;23.36;83.35
80290;SHT30;69592;44.804;-0.550;2023-08-31T11:15:14;23.66;81.60
80290;SHT30;69592;44.804;-0.550;2023-08-31T11:17:41;23.77;83.15
80290;SHT30;69592;44.804;-0.550;2023-08-31T11:20:14;23.80;84.12
80290;SHT30;69592;44.804;-0.550;2023-08-31T11:22:49;23.62;82.94
80290;SHT30;69592;44.804;-0.550;2023-08-31T11:25:24;23.45;85.32
80290;SHT30;69592;44.804;-0.550;2023-08-31T11:27:57;23.70;84.52
80290;SHT30;69592;44.804;-0.550;2023-08-31T11:30:25;23.85;83.08
80290;SHT30;69592;44.804;-0.550;2023-08-31T11:32:52;23.69;82.41
80290;SHT30;69592;44.804;-0.550;2023-08-31T11:35:19;23.64;83.33
80290;SHT30;69592;44.804;-0.550;2023-08-31T11:37:49;23.62;82.51
80290;SHT30;69592;44.804;-0.550;2023-08-31T11:40:15;23.60;83.20
80290;SHT30;69592;44.804;-0.550;2023-08-31T11:42:41;23.38;84.58
80290;SHT30;69592;44.804;-0.550;2023-08-31T11:45:07;23.16;85.15
80290;SHT30;69592;44.804;-0.550;2023-08-31T11:47:33;23.29;84.86
80290;SHT30;69592;44.804;-0.550;2023-08-31T11:50:00;23.56;84.17
80290;SHT30;69592;44.804;-0.550;2023-08-31T11:52:30;23.69;83.24
80290;SHT30;69592;44.804;-0.550;2023-08-31T11:54:56;24.01;83.02
80290;SHT30;69592;44.804;-0.550;2023-08-31T11:57:26;24.01;83.64
80290;SHT30;69592;44.804;-0.550;2023-08-31T11:59:51;24.04;84.58
80290;SHT30;69592;44.804;-0.550;2023-08-31T12:02:19;24.10;83.44
80290;SHT30;69592;44.804;-0.550;2023-08-31T12:04:48;24.11;82.36
80290;SHT30;69592;44.804;-0.550;2023-08-31T12:07:18;24.22;82.55
80290;SHT30;69592;44.804;-0.550;2023-08-31T12:09:46;24.14;82.61
80290;SHT30;69592;44.804;-0.550;2023-08-31T12:12:15;24.34;82.57
80290;SHT30;69592;44.804;-0.550;2023-08-31T12:14:41;24.28;83.60
80290;SHT30;69592;44.804;-0.550;2023-08-31T12:17:08;24.39;81.99
80290;SHT30;69592;44.804;-0.550;2023-08-31T12:19:36;24.31;83.96
80290;SHT30;69592;44.804;-0.550;2023-08-31T12:22:02;23.92;81.80
80290;SHT30;69592;44.804;-0.550;2023-08-31T12:24:27;23.87;82.80
80290;SHT30;69592;44.804;-0.550;2023-08-31T12:26:53;23.87;82.97
80290;SHT30;69592;44.804;-0.550;2023-08-31T12:29:22;23.80;82.89
80290;SHT30;69592;44.804;-0.550;2023-08-31T12:31:48;23.83;83.58
80290;SHT30;69592;44.804;-0.550;2023-08-31T12:34:15;24.03;83.65
80290;SHT30;69592;44.804;-0.550;2023-08-31T12:36:40;24.00;83.30
80290;SHT30;69592;44.804;-0.550;2023-08-31T12:39:09;24.11;83.26
80290;SHT30;69592;44.804;-0.550;2023-08-31T12:41:40;24.32;82.86
80290;SHT30;69592;44.804;-0.550;2023-08-31T12:44:07;24.56;82.56
80290;SHT30;69592;44.804;-0.550;2023-08-31T12:46:33;24.79;82.40
80290;SHT30;69592;44.804;-0.550;2023-08-31T12:49:00;24.85;82.46
80290;SHT30;69592;44.804;-0.550;2023-08-31T12:51:26;24.78;81.15
80290;SHT30;69592;44.804;-0.550;2023-08-31T12:53:51;25.09;80.50
80290;SHT30;69592;44.804;-0.550;2023-08-31T12:56:17;25.15;79.14
80290;SHT30;69592;44.804;-0.550;2023-08-31T12:58:51;25.30;80.55
80290;SHT30;69592;44.804;-0.550;2023-08-31T13:01:18;25.50;80.04
80290;SHT30;69592;44.804;-0.550;2023-08-31T13:03:44;25.51;79.44
80290;SHT30;69592;44.804;-0.550;2023-08-31T13:06:10;25.46;78.80
80290;SHT30;69592;44.804;-0.550;2023-08-31T13:08:36;25.84;78.51
80290;SHT30;69592;44.804;-0.550;2023-08-31T13:11:02;25.95;78.17
80290;SHT30;69592;44.804;-0.550;2023-08-31T13:13:30;26.28;77.27
80290;SHT30;69592;44.804;-0.550;2023-08-31T13:15:56;26.17;76.63
80290;SHT30;69592;44.804;-0.550;2023-08-31T13:18:22;26.02;77.00
80290;SHT30;69592;44.804;-0.550;2023-08-31T13:20:54;26.15;76.94
80290;SHT30;69592;44.804;-0.550;2023-08-31T13:23:21;26.18;77.03
80290;SHT30;69592;44.804;-0.550;2023-08-31T13:26:07;26.20;76.35
80290;SHT30;69592;44.804;-0.550;2023-08-31T13:28:34;26.22;76.46
80290;SHT30;69592;44.804;-0.550;2023-08-31T13:31:18;26.36;75.87
80290;SHT30;69592;44.804;-0.550;2023-08-31T13:33:48;26.43;74.80
80290;SHT30;69592;44.804;-0.550;2023-08-31T13:36:25;26.22;75.79
80290;SHT30;69592;44.804;-0.550;2023-08-31T13:39:20;25.88;75.39
80290;SHT30;69592;44.804;-0.550;2023-08-31T13:42:17;25.91;75.92
80290;SHT30;69592;44.804;-0.550;2023-08-31T13:44:52;26.14;75.67
80290;SHT30;69592;44.804;-0.550;2023-08-31T13:47:27;25.85;76.23
80290;SHT30;69592;44.804;-0.550;2023-08-31T13:50:07;25.39;77.35
80290;SHT30;69592;44.804;-0.550;2023-08-31T13:52:52;25.15;78.34
80290;SHT30;69592;44.804;-0.550;2023-08-31T13:55:32;24.92;80.86
80290;SHT30;69592;44.804;-0.550;2023-08-31T13:58:04;25.00;80.90
80290;SHT30;69592;44.804;-0.550;2023-08-31T14:00:31;25.19;81.07
80290;SHT30;69592;44.804;-0.550;2023-08-31T14:02:56;25.36;76.97
80290;SHT30;69592;44.804;-0.550;2023-08-31T14:05:23;26.08;73.75
80290;SHT30;69592;44.804;-0.550;2023-08-31T14:07:51;26.82;72.21
80290;SHT30;69592;44.804;-0.550;2023-08-31T14:10:16;27.17;70.39
80290;SHT30;69592;44.804;-0.550;2023-08-31T14:12:47;27.48;69.88
80290;SHT30;69592;44.804;-0.550;2023-08-31T14:15:12;27.62;68.79
80290;SHT30;69592;44.804;-0.550;2023-08-31T14:17:38;27.69;68.69
80290;SHT30;69592;44.804;-0.550;2023-08-31T14:20:04;27.20;69.87
80290;SHT30;69592;44.804;-0.550;2023-08-31T14:22:41;26.93;69.79
80290;SHT30;69592;44.804;-0.550;2023-08-31T14:25:11;27.08;70.04
80290;SHT30;69592;44.804;-0.550;2023-08-31T14:27:38;27.04;70.47
80290;SHT30;69592;44.804;-0.550;2023-08-31T14:30:07;26.48;70.95
80290;SHT30;69592;44.804;-0.550;2023-08-31T14:32:33;26.65;71.71
80290;SHT30;69592;44.804;-0.550;2023-08-31T14:34:59;26.68;71.97
80290;SHT30;69592;44.804;-0.550;2023-08-31T14:37:42;26.79;71.67
80290;SHT30;69592;44.804;-0.550;2023-08-31T14:40:07;27.10;71.98
80290;SHT30;69592;44.804;-0.550;2023-08-31T14:42:33;27.18;71.13
80290;SHT30;69592;44.804;-0.550;2023-08-31T14:44:59;27.53;72.13
80290;SHT30;69592;44.804;-0.550;2023-08-31T14:47:25;27.54;71.01
80290;SHT30;69592;44.804;-0.550;2023-08-31T14:49:50;27.78;69.57
80290;SHT30;69592;44.804;-0.550;2023-08-31T14:52:19;28.02;69.35
80290;SHT30;69592;44.804;-0.550;2023-08-31T14:54:45;28.25;68.97
80290;SHT30;69592;44.804;-0.550;2023-08-31T14:57:11;28.23;66.91
80290;SHT30;69592;44.804;-0.550;2023-08-31T14:59:45;28.42;67.83
80290;SHT30;69592;44.804;-0.550;2023-08-31T15:02:11;28.67;66.47
80290;SHT30;69592;44.804;-0.550;2023-08-31T15:04:36;29.01;66.13
80290;SHT30;69592;44.804;-0.550;2023-08-31T15:07:02;28.53;64.89
80290;SHT30;69592;44.804;-0.550;2023-08-31T15:09:33;27.98;64.48
80290;SHT30;69592;44.804;-0.550;2023-08-31T15:12:02;27.51;65.60
80290;SHT30;69592;44.804;-0.550;2023-08-31T15:14:27;27.54;65.59
80290;SHT30;69592;44.804;-0.550;2023-08-31T15:16:53;27.30;64.02
80290;SHT30;69592;44.804;-0.550;2023-08-31T15:19:18;27.23;64.72
80290;SHT30;69592;44.804;-0.550;2023-08-31T15:21:44;26.99;64.51
80290;SHT30;69592;44.804;-0.550;2023-08-31T15:24:12;26.80;64.25
80290;SHT30;69592;44.804;-0.550;2023-08-31T15:26:38;26.31;64.30
80290;SHT30;69592;44.804;-0.550;2023-08-31T15:29:03;26.11;66.18
80290;SHT30;69592;44.804;-0.550;2023-08-31T15:31:29;25.71;66.98